sensor_id;sensor_type;location;lat;lon;timestamp;P1;durP1;ratioP1;P2;durP2;ratioP2
60612;SDS011;46443;59.792;17.626;2023-06-22T00:02:00;11.17;;;9.27;;
60612;SDS011;46443;59.792;17.626;2023-06-22T00:04:27;12.50;;;9.23;;
60612;SDS011;46443;59.792;17.626;2023-06-22T00:06:53;13.27;;;10.30;;
60612;SDS011;46443;59.792;17.626;2023-06-22T00:09:19;10.17;;;8.70;;
60612;SDS011;46443;59.792;17.626;2023-06-22T00:11:45;11.47;;;9.03;;
60612;SDS011;46443;59.792;17.626;2023-06-22T00:14:11;11.93;;;9.37;;
60612;SDS011;46443;59.792;17.626;2023-06-22T00:16:37;11.50;;;9.33;;
60612;SDS011;46443;59.792;17.626;2023-06-22T00:19:03;11.50;;;9.13;;
60612;SDS011;46443;59.792;17.626;2023-06-22T00:21:30;12.03;;;10.03;;
60612;SDS011;46443;59.792;17.626;2023-06-22T00:23:56;10.90;;;9.17;;
60612;SDS011;46443;59.792;17.626;2023-06-22T00:26:22;10.73;;;8.83;;
60612;SDS011;46443;59.792;17.626;2023-06-22T00:28:48;11.40;;;9.77;;
60612;SDS011;46443;59.792;17.626;2023-06-22T00:31:14;12.20;;;9.33;;
60612;SDS011;46443;59.792;17.626;2023-06-22T00:33:40;11.80;;;10.00;;
60612;SDS011;46443;59.792;17.626;2023-06-22T00:36:06;11.20;;;10.00;;
60612;SDS011;46443;59.792;17.626;2023-06-22T00:38:33;11.33;;;9.33;;
60612;SDS011;46443;59.792;17.626;2023-06-22T00:40:59;12.33;;;10.33;;
60612;SDS011;46443;59.792;17.626;2023-06-22T00:43:25;12.30;;;10.00;;
60612;SDS011;46443;59.792;17.626;2023-06-22T00:45:51;10.90;;;9.63;;
60612;SDS011;46443;59.792;17.626;2023-06-22T00:48:17;12.97;;;9.83;;
60612;SDS011;46443;59.792;17.626;2023-06-22T00:50:43;10.87;;;9.23;;
60612;SDS011;46443;59.792;17.626;2023-06-22T00:53:09;11.33;;;9.23;;
60612;SDS011;46443;59.792;17.626;2023-06-22T00:55:45;11.80;;;10.23;;
60612;SDS011;46443;59.792;17.626;2023-06-22T00:58:12;11.03;;;9.50;;
60612;SDS011;46443;59.792;17.626;2023-06-22T01:00:39;12.77;;;10.17;;
60612;SDS011;46443;59.792;17.626;2023-06-22T01:03:06;12.10;;;10.67;;
60612;SDS011;46443;59.792;17.626;2023-06-22T01:05:36;12.05;;;9.70;;
60612;SDS011;46443;59.792;17.626;2023-06-22T01:11:16;12.93;;;10.25;;
60612;SDS011;46443;59.792;17.626;2023-06-22T01:16:00;12.13;;;10.63;;
60612;SDS011;46443;59.792;17.626;2023-06-22T01:18:28;14.47;;;11.60;;
60612;SDS011;46443;59.792;17.626;2023-06-22T01:20:56;14.60;;;11.30;;
60612;SDS011;46443;59.792;17.626;2023-06-22T01:25:54;12.90;;;10.73;;
60612;SDS011;46443;59.792;17.626;2023-06-22T01:30:49;13.23;;;11.07;;
60612;SDS011;46443;59.792;17.626;2023-06-22T01:33:15;13.83;;;11.27;;
60612;SDS011;46443;59.792;17.626;2023-06-22T01:35:41;12.40;;;10.50;;
60612;SDS011;46443;59.792;17.626;2023-06-22T01:38:08;13.40;;;10.87;;
60612;SDS011;46443;59.792;17.626;2023-06-22T01:40:34;14.13;;;11.47;;
60612;SDS011;46443;59.792;17.626;2023-06-22T01:43:02;14.37;;;12.00;;
60612;SDS011;46443;59.792;17.626;2023-06-22T01:45:28;14.03;;;11.47;;
60612;SDS011;46443;59.792;17.626;2023-06-22T01:47:54;12.03;;;10.40;;
60612;SDS011;46443;59.792;17.626;2023-06-22T01:50:21;13.60;;;10.47;;
60612;SDS011;46443;59.792;17.626;2023-06-22T01:52:47;12.17;;;10.40;;
60612;SDS011;46443;59.792;17.626;2023-06-22T01:55:13;14.03;;;11.90;;
60612;SDS011;46443;59.792;17.626;2023-06-22T01:57:39;14.23;;;11.33;;
60612;SDS011;46443;59.792;17.626;2023-06-22T02:02:32;12.47;;;11.10;;
60612;SDS011;46443;59.792;17.626;2023-06-22T02:05:02;12.53;;;10.67;;
60612;SDS011;46443;59.792;17.626;2023-06-22T02:07:31;13.43;;;10.93;;
60612;SDS011;46443;59.792;17.626;2023-06-22T02:09:58;13.80;;;10.68;;
60612;SDS011;46443;59.792;17.626;2023-06-22T02:12:25;12.83;;;11.07;;
60612;SDS011;46443;59.792;17.626;2023-06-22T02:14:52;16.53;;;11.10;;
60612;SDS011;46443;59.792;17.626;2023-06-22T02:17:19;14.77;;;12.33;;
60612;SDS011;46443;59.792;17.626;2023-06-22T02:19:45;12.70;;;10.93;;
60612;SDS011;46443;59.792;17.626;2023-06-22T02:22:11;12.63;;;11.20;;
60612;SDS011;46443;59.792;17.626;2023-06-22T02:24:38;15.50;;;10.97;;
60612;SDS011;46443;59.792;17.626;2023-06-22T02:27:04;14.63;;;11.50;;
60612;SDS011;46443;59.792;17.626;2023-06-22T02:29:32;15.50;;;12.10;;
60612;SDS011;46443;59.792;17.626;2023-06-22T02:31:58;12.40;;;10.63;;
60612;SDS011;46443;59.792;17.626;2023-06-22T02:34:24;13.10;;;10.90;;
60612;SDS011;46443;59.792;17.626;2023-06-22T02:36:50;13.93;;;11.43;;
60612;SDS011;46443;59.792;17.626;2023-06-22T02:39:23;14.60;;;11.60;;
60612;SDS011;46443;59.792;17.626;2023-06-22T02:41:50;15.77;;;11.90;;
60612;SDS011;46443;59.792;17.626;2023-06-22T02:44:16;14.50;;;12.10;;
60612;SDS011;46443;59.792;17.626;2023-06-22T02:46:43;13.83;;;11.60;;
60612;SDS011;46443;59.792;17.626;2023-06-22T02:49:09;13.83;;;11.63;;
60612;SDS011;46443;59.792;17.626;2023-06-22T02:51:38;13.03;;;10.57;;
60612;SDS011;46443;59.792;17.626;2023-06-22T02:54:04;12.73;;;10.77;;
60612;SDS011;46443;59.792;17.626;2023-06-22T02:56:30;13.87;;;11.90;;
60612;SDS011;46443;59.792;17.626;2023-06-22T02:58:57;13.60;;;11.40;;
60612;SDS011;46443;59.792;17.626;2023-06-22T03:01:29;13.55;;;10.73;;
60612;SDS011;46443;59.792;17.626;2023-06-22T03:04:05;12.93;;;11.20;;
60612;SDS011;46443;59.792;17.626;2023-06-22T03:06:31;12.37;;;10.63;;
60612;SDS011;46443;59.792;17.626;2023-06-22T03:09:01;13.03;;;10.70;;
60612;SDS011;46443;59.792;17.626;2023-06-22T03:11:29;12.80;;;11.07;;
60612;SDS011;46443;59.792;17.626;2023-06-22T03:13:55;13.37;;;11.07;;
60612;SDS011;46443;59.792;17.626;2023-06-22T03:16:21;12.37;;;10.83;;
60612;SDS011;46443;59.792;17.626;2023-06-22T03:18:48;14.63;;;12.17;;
60612;SDS011;46443;59.792;17.626;2023-06-22T03:21:14;15.73;;;12.20;;
60612;SDS011;46443;59.792;17.626;2023-06-22T03:23:40;12.63;;;10.97;;
60612;SDS011;46443;59.792;17.626;2023-06-22T03:26:08;12.20;;;10.73;;
60612;SDS011;46443;59.792;17.626;2023-06-22T03:28:35;12.90;;;10.67;;
60612;SDS011;46443;59.792;17.626;2023-06-22T03:31:01;12.73;;;10.97;;
60612;SDS011;46443;59.792;17.626;2023-06-22T03:33:27;12.90;;;11.20;;
60612;SDS011;46443;59.792;17.626;2023-06-22T03:35:53;13.13;;;11.23;;
60612;SDS011;46443;59.792;17.626;2023-06-22T03:38:19;13.90;;;11.50;;
60612;SDS011;46443;59.792;17.626;2023-06-22T03:40:45;14.53;;;11.23;;
60612;SDS011;46443;59.792;17.626;2023-06-22T03:43:11;13.87;;;10.87;;
60612;SDS011;46443;59.792;17.626;2023-06-22T03:45:37;13.17;;;10.93;;
60612;SDS011;46443;59.792;17.626;2023-06-22T03:48:03;13.10;;;10.80;;
60612;SDS011;46443;59.792;17.626;2023-06-22T03:50:29;12.53;;;10.80;;
60612;SDS011;46443;59.792;17.626;2023-06-22T03:52:55;12.30;;;11.00;;
60612;SDS011;46443;59.792;17.626;2023-06-22T03:55:21;13.27;;;10.13;;
60612;SDS011;46443;59.792;17.626;2023-06-22T03:57:48;12.30;;;10.50;;
60612;SDS011;46443;59.792;17.626;2023-06-22T04:00:14;12.97;;;10.00;;
60612;SDS011;46443;59.792;17.626;2023-06-22T04:02:43;11.43;;;9.52;;
60612;SDS011;46443;59.792;17.626;2023-06-22T04:05:09;11.77;;;9.47;;
60612;SDS011;46443;59.792;17.626;2023-06-22T04:07:35;11.73;;;9.23;;
60612;SDS011;46443;59.792;17.626;2023-06-22T04:10:05;13.88;;;10.00;;
60612;SDS011;46443;59.792;17.626;2023-06-22T04:12:31;12.10;;;9.10;;
60612;SDS011;46443;59.792;17.626;2023-06-22T04:14:57;12.17;;;9.30;;
60612;SDS011;46443;59.792;17.626;2023-06-22T04:17:23;13.10;;;9.43;;
60612;SDS011;46443;59.792;17.626;2023-06-22T04:19:50;14.13;;;9.50;;
60612;SDS011;46443;59.792;17.626;2023-06-22T04:22:16;12.30;;;9.63;;
60612;SDS011;46443;59.792;17.626;2023-06-22T04:24:42;12.30;;;9.10;;
60612;SDS011;46443;59.792;17.626;2023-06-22T04:27:08;10.87;;;9.03;;
60612;SDS011;46443;59.792;17.626;2023-06-22T04:29:34;15.63;;;9.40;;
60612;SDS011;46443;59.792;17.626;2023-06-22T04:32:00;11.80;;;9.73;;
60612;SDS011;46443;59.792;17.626;2023-06-22T04:36:56;11.63;;;9.33;;
60612;SDS011;46443;59.792;17.626;2023-06-22T04:39:22;13.07;;;9.20;;
60612;SDS011;46443;59.792;17.626;2023-06-22T04:41:49;11.27;;;9.27;;
60612;SDS011;46443;59.792;17.626;2023-06-22T04:44:17;13.57;;;9.70;;
60612;SDS011;46443;59.792;17.626;2023-06-22T04:46:54;12.00;;;9.90;;
60612;SDS011;46443;59.792;17.626;2023-06-22T04:49:25;12.33;;;9.27;;
60612;SDS011;46443;59.792;17.626;2023-06-22T04:51:57;12.03;;;9.03;;
60612;SDS011;46443;59.792;17.626;2023-06-22T04:54:23;13.00;;;9.93;;
60612;SDS011;46443;59.792;17.626;2023-06-22T04:56:49;11.33;;;9.43;;
60612;SDS011;46443;59.792;17.626;2023-06-22T04:59:21;12.13;;;10.00;;
60612;SDS011;46443;59.792;17.626;2023-06-22T05:01:47;11.30;;;9.40;;
60612;SDS011;46443;59.792;17.626;2023-06-22T05:04:13;12.63;;;9.97;;
60612;SDS011;46443;59.792;17.626;2023-06-22T05:06:39;12.73;;;9.17;;
60612;SDS011;46443;59.792;17.626;2023-06-22T05:09:05;13.63;;;9.53;;
60612;SDS011;46443;59.792;17.626;2023-06-22T05:11:32;13.73;;;10.30;;
60612;SDS011;46443;59.792;17.626;2023-06-22T05:13:58;13.27;;;9.93;;
60612;SDS011;46443;59.792;17.626;2023-06-22T05:16:24;11.83;;;9.43;;
60612;SDS011;46443;59.792;17.626;2023-06-22T05:18:53;12.18;;;9.55;;
60612;SDS011;46443;59.792;17.626;2023-06-22T05:21:23;11.43;;;8.80;;
60612;SDS011;46443;59.792;17.626;2023-06-22T05:26:16;11.85;;;9.23;;
60612;SDS011;46443;59.792;17.626;2023-06-22T05:28:42;11.03;;;9.10;;
60612;SDS011;46443;59.792;17.626;2023-06-22T05:31:11;9.90;;;8.40;;
60612;SDS011;46443;59.792;17.626;2023-06-22T05:33:37;10.77;;;8.47;;
60612;SDS011;46443;59.792;17.626;2023-06-22T05:36:03;11.83;;;8.80;;
60612;SDS011;46443;59.792;17.626;2023-06-22T05:38:29;11.40;;;9.27;;
60612;SDS011;46443;59.792;17.626;2023-06-22T05:40:55;12.70;;;8.77;;
60612;SDS011;46443;59.792;17.626;2023-06-22T05:43:21;10.10;;;8.03;;
60612;SDS011;46443;59.792;17.626;2023-06-22T05:45:47;12.00;;;9.13;;
60612;SDS011;46443;59.792;17.626;2023-06-22T05:48:13;12.47;;;9.67;;
60612;SDS011;46443;59.792;17.626;2023-06-22T05:50:39;12.87;;;8.93;;
60612;SDS011;46443;59.792;17.626;2023-06-22T05:53:05;10.23;;;8.30;;
60612;SDS011;46443;59.792;17.626;2023-06-22T05:55:32;10.55;;;8.25;;
60612;SDS011;46443;59.792;17.626;2023-06-22T05:57:58;10.65;;;7.88;;
60612;SDS011;46443;59.792;17.626;2023-06-22T06:00:24;10.10;;;7.97;;
60612;SDS011;46443;59.792;17.626;2023-06-22T06:02:50;11.35;;;8.68;;
60612;SDS011;46443;59.792;17.626;2023-06-22T06:05:16;9.93;;;8.48;;
60612;SDS011;46443;59.792;17.626;2023-06-22T06:07:44;10.43;;;7.87;;
60612;SDS011;46443;59.792;17.626;2023-06-22T06:10:10;9.63;;;7.95;;
60612;SDS011;46443;59.792;17.626;2023-06-22T06:12:37;9.55;;;7.93;;
60612;SDS011;46443;59.792;17.626;2023-06-22T06:15:03;10.35;;;8.27;;
60612;SDS011;46443;59.792;17.626;2023-06-22T06:17:29;11.43;;;8.27;;
60612;SDS011;46443;59.792;17.626;2023-06-22T06:19:55;10.40;;;7.97;;
60612;SDS011;46443;59.792;17.626;2023-06-22T06:22:21;10.35;;;8.10;;
60612;SDS011;46443;59.792;17.626;2023-06-22T06:24:48;11.65;;;8.35;;
60612;SDS011;46443;59.792;17.626;2023-06-22T06:27:15;10.48;;;8.20;;
60612;SDS011;46443;59.792;17.626;2023-06-22T06:29:43;10.02;;;8.18;;
60612;SDS011;46443;59.792;17.626;2023-06-22T06:32:13;11.55;;;8.70;;
60612;SDS011;46443;59.792;17.626;2023-06-22T06:34:39;10.40;;;7.78;;
60612;SDS011;46443;59.792;17.626;2023-06-22T06:37:05;10.52;;;8.73;;
60612;SDS011;46443;59.792;17.626;2023-06-22T06:39:31;13.48;;;9.00;;
60612;SDS011;46443;59.792;17.626;2023-06-22T06:41:57;10.32;;;7.78;;
60612;SDS011;46443;59.792;17.626;2023-06-22T06:44:23;9.32;;;8.25;;
60612;SDS011;46443;59.792;17.626;2023-06-22T06:46:49;10.80;;;8.35;;
60612;SDS011;46443;59.792;17.626;2023-06-22T06:49:15;11.20;;;8.05;;
60612;SDS011;46443;59.792;17.626;2023-06-22T06:51:41;10.50;;;8.23;;
60612;SDS011;46443;59.792;17.626;2023-06-22T06:54:07;9.25;;;8.10;;
60612;SDS011;46443;59.792;17.626;2023-06-22T06:56:33;10.63;;;8.75;;
60612;SDS011;46443;59.792;17.626;2023-06-22T06:59:00;13.18;;;9.13;;
60612;SDS011;46443;59.792;17.626;2023-06-22T07:01:26;11.15;;;8.20;;
60612;SDS011;46443;59.792;17.626;2023-06-22T07:03:52;10.38;;;8.02;;
60612;SDS011;46443;59.792;17.626;2023-06-22T07:06:18;9.93;;;8.38;;
60612;SDS011;46443;59.792;17.626;2023-06-22T07:08:44;8.85;;;7.40;;
60612;SDS011;46443;59.792;17.626;2023-06-22T07:11:10;10.15;;;8.25;;
60612;SDS011;46443;59.792;17.626;2023-06-22T07:13:36;9.52;;;8.00;;
60612;SDS011;46443;59.792;17.626;2023-06-22T07:16:03;12.20;;;8.70;;
60612;SDS011;46443;59.792;17.626;2023-06-22T07:18:29;8.57;;;7.45;;
60612;SDS011;46443;59.792;17.626;2023-06-22T07:20:55;11.32;;;8.43;;
60612;SDS011;46443;59.792;17.626;2023-06-22T07:23:21;10.23;;;8.68;;
60612;SDS011;46443;59.792;17.626;2023-06-22T07:25:47;9.70;;;7.97;;
60612;SDS011;46443;59.792;17.626;2023-06-22T07:28:14;10.88;;;7.78;;
60612;SDS011;46443;59.792;17.626;2023-06-22T07:30:40;9.35;;;8.05;;
60612;SDS011;46443;59.792;17.626;2023-06-22T07:33:06;9.15;;;7.40;;
60612;SDS011;46443;59.792;17.626;2023-06-22T07:35:33;10.63;;;8.05;;
60612;SDS011;46443;59.792;17.626;2023-06-22T07:37:59;9.57;;;7.90;;
60612;SDS011;46443;59.792;17.626;2023-06-22T07:40:25;8.90;;;7.13;;
60612;SDS011;46443;59.792;17.626;2023-06-22T07:42:52;8.20;;;7.22;;
60612;SDS011;46443;59.792;17.626;2023-06-22T07:45:18;11.85;;;7.20;;
60612;SDS011;46443;59.792;17.626;2023-06-22T07:47:45;14.18;;;7.65;;
60612;SDS011;46443;59.792;17.626;2023-06-22T07:50:11;8.70;;;7.40;;
60612;SDS011;46443;59.792;17.626;2023-06-22T07:52:37;10.65;;;6.97;;
60612;SDS011;46443;59.792;17.626;2023-06-22T07:55:03;8.32;;;6.53;;
60612;SDS011;46443;59.792;17.626;2023-06-22T07:57:29;8.55;;;6.50;;
60612;SDS011;46443;59.792;17.626;2023-06-22T08:00:03;9.85;;;6.60;;
60612;SDS011;46443;59.792;17.626;2023-06-22T08:02:37;9.27;;;6.80;;
60612;SDS011;46443;59.792;17.626;2023-06-22T08:05:03;8.52;;;6.45;;
60612;SDS011;46443;59.792;17.626;2023-06-22T08:07:29;9.23;;;6.55;;
60612;SDS011;46443;59.792;17.626;2023-06-22T08:09:57;9.10;;;6.82;;
60612;SDS011;46443;59.792;17.626;2023-06-22T08:12:24;8.52;;;5.95;;
60612;SDS011;46443;59.792;17.626;2023-06-22T08:14:50;8.70;;;6.18;;
60612;SDS011;46443;59.792;17.626;2023-06-22T08:17:16;7.80;;;5.93;;
60612;SDS011;46443;59.792;17.626;2023-06-22T08:19:42;8.48;;;5.90;;
60612;SDS011;46443;59.792;17.626;2023-06-22T08:22:08;7.28;;;5.53;;
60612;SDS011;46443;59.792;17.626;2023-06-22T08:24:34;9.30;;;5.63;;
60612;SDS011;46443;59.792;17.626;2023-06-22T08:27:00;8.20;;;5.68;;
60612;SDS011;46443;59.792;17.626;2023-06-22T08:29:26;9.63;;;5.53;;
60612;SDS011;46443;59.792;17.626;2023-06-22T08:31:52;10.13;;;5.85;;
60612;SDS011;46443;59.792;17.626;2023-06-22T08:34:18;9.68;;;5.95;;
60612;SDS011;46443;59.792;17.626;2023-06-22T08:36:47;7.47;;;5.93;;
60612;SDS011;46443;59.792;17.626;2023-06-22T08:39:18;8.13;;;5.68;;
60612;SDS011;46443;59.792;17.626;2023-06-22T08:41:45;8.10;;;5.70;;
60612;SDS011;46443;59.792;17.626;2023-06-22T08:44:11;7.45;;;5.38;;
60612;SDS011;46443;59.792;17.626;2023-06-22T08:46:37;7.43;;;5.35;;
60612;SDS011;46443;59.792;17.626;2023-06-22T08:49:05;10.50;;;5.40;;
60612;SDS011;46443;59.792;17.626;2023-06-22T08:51:31;6.90;;;5.25;;
60612;SDS011;46443;59.792;17.626;2023-06-22T08:53:57;6.97;;;4.93;;
60612;SDS011;46443;59.792;17.626;2023-06-22T08:56:28;6.57;;;5.10;;
60612;SDS011;46443;59.792;17.626;2023-06-22T08:58:54;8.50;;;6.03;;
60612;SDS011;46443;59.792;17.626;2023-06-22T09:01:21;6.78;;;5.15;;
60612;SDS011;46443;59.792;17.626;2023-06-22T09:03:47;7.05;;;5.10;;
60612;SDS011;46443;59.792;17.626;2023-06-22T09:06:21;8.00;;;5.28;;
60612;SDS011;46443;59.792;17.626;2023-06-22T09:08:47;7.18;;;5.03;;
60612;SDS011;46443;59.792;17.626;2023-06-22T09:11:14;6.05;;;4.68;;
60612;SDS011;46443;59.792;17.626;2023-06-22T09:13:40;6.97;;;5.10;;
60612;SDS011;46443;59.792;17.626;2023-06-22T09:16:06;7.57;;;5.20;;
60612;SDS011;46443;59.792;17.626;2023-06-22T09:18:33;5.78;;;4.78;;
60612;SDS011;46443;59.792;17.626;2023-06-22T09:21:01;8.05;;;4.82;;
60612;SDS011;46443;59.792;17.626;2023-06-22T09:23:27;7.85;;;4.68;;
60612;SDS011;46443;59.792;17.626;2023-06-22T09:25:53;6.25;;;4.60;;
60612;SDS011;46443;59.792;17.626;2023-06-22T09:28:19;7.15;;;5.00;;
60612;SDS011;46443;59.792;17.626;2023-06-22T09:30:45;5.72;;;4.35;;
60612;SDS011;46443;59.792;17.626;2023-06-22T09:33:11;7.32;;;4.60;;
60612;SDS011;46443;59.792;17.626;2023-06-22T09:35:37;6.90;;;4.40;;
60612;SDS011;46443;59.792;17.626;2023-06-22T09:38:03;8.00;;;4.60;;
60612;SDS011;46443;59.792;17.626;2023-06-22T09:40:29;6.75;;;4.45;;
60612;SDS011;46443;59.792;17.626;2023-06-22T09:42:57;6.68;;;4.53;;
60612;SDS011;46443;59.792;17.626;2023-06-22T09:45:23;5.30;;;4.38;;
60612;SDS011;46443;59.792;17.626;2023-06-22T09:47:49;6.15;;;4.65;;
60612;SDS011;46443;59.792;17.626;2023-06-22T09:50:16;6.13;;;4.35;;
60612;SDS011;46443;59.792;17.626;2023-06-22T09:52:42;6.97;;;4.47;;
60612;SDS011;46443;59.792;17.626;2023-06-22T09:55:09;6.68;;;4.72;;
60612;SDS011;46443;59.792;17.626;2023-06-22T09:57:35;7.63;;;4.00;;
60612;SDS011;46443;59.792;17.626;2023-06-22T10:00:02;6.20;;;4.40;;
60612;SDS011;46443;59.792;17.626;2023-06-22T10:02:30;6.40;;;4.57;;
60612;SDS011;46443;59.792;17.626;2023-06-22T10:04:56;5.60;;;4.50;;
60612;SDS011;46443;59.792;17.626;2023-06-22T10:07:22;6.63;;;4.75;;
60612;SDS011;46443;59.792;17.626;2023-06-22T10:09:49;6.20;;;4.18;;
60612;SDS011;46443;59.792;17.626;2023-06-22T10:12:15;6.32;;;4.13;;
60612;SDS011;46443;59.792;17.626;2023-06-22T10:14:41;6.70;;;4.78;;
60612;SDS011;46443;59.792;17.626;2023-06-22T10:17:07;7.43;;;4.53;;
60612;SDS011;46443;59.792;17.626;2023-06-22T10:19:33;7.60;;;4.78;;
60612;SDS011;46443;59.792;17.626;2023-06-22T10:22:01;6.15;;;4.35;;
60612;SDS011;46443;59.792;17.626;2023-06-22T10:24:28;7.30;;;4.30;;
60612;SDS011;46443;59.792;17.626;2023-06-22T10:26:54;7.82;;;4.28;;
60612;SDS011;46443;59.792;17.626;2023-06-22T10:29:20;7.40;;;4.53;;
60612;SDS011;46443;59.792;17.626;2023-06-22T10:31:46;5.07;;;4.10;;
60612;SDS011;46443;59.792;17.626;2023-06-22T10:34:12;7.97;;;4.25;;
60612;SDS011;46443;59.792;17.626;2023-06-22T10:36:38;8.23;;;4.07;;
60612;SDS011;46443;59.792;17.626;2023-06-22T10:39:04;5.10;;;3.88;;
60612;SDS011;46443;59.792;17.626;2023-06-22T10:41:31;6.03;;;4.38;;
60612;SDS011;46443;59.792;17.626;2023-06-22T10:43:57;5.57;;;3.67;;
60612;SDS011;46443;59.792;17.626;2023-06-22T10:46:26;5.45;;;3.83;;
60612;SDS011;46443;59.792;17.626;2023-06-22T10:48:52;5.47;;;3.90;;
60612;SDS011;46443;59.792;17.626;2023-06-22T10:51:20;6.85;;;3.92;;
60612;SDS011;46443;59.792;17.626;2023-06-22T10:53:46;5.65;;;3.67;;
60612;SDS011;46443;59.792;17.626;2023-06-22T10:56:12;5.57;;;4.10;;
60612;SDS011;46443;59.792;17.626;2023-06-22T10:58:38;5.85;;;3.67;;
60612;SDS011;46443;59.792;17.626;2023-06-22T11:01:04;5.00;;;3.80;;
60612;SDS011;46443;59.792;17.626;2023-06-22T11:03:30;5.20;;;3.70;;
60612;SDS011;46443;59.792;17.626;2023-06-22T11:05:56;5.25;;;3.38;;
60612;SDS011;46443;59.792;17.626;2023-06-22T11:08:22;5.45;;;4.10;;
60612;SDS011;46443;59.792;17.626;2023-06-22T11:10:48;4.63;;;3.67;;
60612;SDS011;46443;59.792;17.626;2023-06-22T11:13:14;5.43;;;4.00;;
60612;SDS011;46443;59.792;17.626;2023-06-22T11:15:40;5.80;;;3.50;;
60612;SDS011;46443;59.792;17.626;2023-06-22T11:18:06;6.55;;;4.28;;
60612;SDS011;46443;59.792;17.626;2023-06-22T11:20:33;4.53;;;3.42;;
60612;SDS011;46443;59.792;17.626;2023-06-22T11:23:06;6.43;;;3.72;;
60612;SDS011;46443;59.792;17.626;2023-06-22T11:25:33;6.28;;;3.97;;
60612;SDS011;46443;59.792;17.626;2023-06-22T11:28:03;5.18;;;3.55;;
60612;SDS011;46443;59.792;17.626;2023-06-22T11:30:30;4.38;;;3.13;;
60612;SDS011;46443;59.792;17.626;2023-06-22T11:32:56;4.65;;;3.20;;
60612;SDS011;46443;59.792;17.626;2023-06-22T11:35:23;5.28;;;3.60;;
60612;SDS011;46443;59.792;17.626;2023-06-22T11:37:49;4.30;;;3.38;;
60612;SDS011;46443;59.792;17.626;2023-06-22T11:40:15;5.53;;;3.40;;
60612;SDS011;46443;59.792;17.626;2023-06-22T11:42:42;4.97;;;3.30;;
60612;SDS011;46443;59.792;17.626;2023-06-22T11:45:08;4.97;;;3.50;;
60612;SDS011;46443;59.792;17.626;2023-06-22T11:47:35;5.72;;;3.20;;
60612;SDS011;46443;59.792;17.626;2023-06-22T11:50:01;6.38;;;3.70;;
60612;SDS011;46443;59.792;17.626;2023-06-22T11:52:28;6.75;;;3.63;;
60612;SDS011;46443;59.792;17.626;2023-06-22T11:54:54;5.75;;;3.53;;
60612;SDS011;46443;59.792;17.626;2023-06-22T11:57:20;5.55;;;3.58;;
60612;SDS011;46443;59.792;17.626;2023-06-22T11:59:46;7.03;;;3.33;;
60612;SDS011;46443;59.792;17.626;2023-06-22T12:02:12;4.45;;;3.40;;
60612;SDS011;46443;59.792;17.626;2023-06-22T12:04:38;4.30;;;3.30;;
60612;SDS011;46443;59.792;17.626;2023-06-22T12:07:04;4.88;;;3.72;;
60612;SDS011;46443;59.792;17.626;2023-06-22T12:09:30;6.13;;;3.75;;
60612;SDS011;46443;59.792;17.626;2023-06-22T12:11:56;4.97;;;3.38;;
60612;SDS011;46443;59.792;17.626;2023-06-22T12:14:22;5.65;;;3.13;;
60612;SDS011;46443;59.792;17.626;2023-06-22T12:16:48;4.60;;;3.67;;
60612;SDS011;46443;59.792;17.626;2023-06-22T12:19:14;8.27;;;3.40;;
60612;SDS011;46443;59.792;17.626;2023-06-22T12:21:40;4.43;;;3.45;;
60612;SDS011;46443;59.792;17.626;2023-06-22T12:24:10;4.72;;;3.03;;
60612;SDS011;46443;59.792;17.626;2023-06-22T12:26:36;4.85;;;3.28;;
60612;SDS011;46443;59.792;17.626;2023-06-22T12:29:02;4.95;;;3.60;;
60612;SDS011;46443;59.792;17.626;2023-06-22T12:31:28;4.95;;;3.75;;
60612;SDS011;46443;59.792;17.626;2023-06-22T12:33:54;5.78;;;3.72;;
60612;SDS011;46443;59.792;17.626;2023-06-22T12:36:20;5.47;;;3.30;;
60612;SDS011;46443;59.792;17.626;2023-06-22T12:38:47;5.78;;;3.20;;
60612;SDS011;46443;59.792;17.626;2023-06-22T12:41:13;4.55;;;3.45;;
60612;SDS011;46443;59.792;17.626;2023-06-22T12:43:40;3.97;;;3.03;;
60612;SDS011;46443;59.792;17.626;2023-06-22T12:46:06;6.13;;;3.10;;
60612;SDS011;46443;59.792;17.626;2023-06-22T12:48:32;4.38;;;3.50;;
60612;SDS011;46443;59.792;17.626;2023-06-22T12:50:58;5.07;;;3.25;;
60612;SDS011;46443;59.792;17.626;2023-06-22T12:53:24;6.13;;;3.28;;
60612;SDS011;46443;59.792;17.626;2023-06-22T12:55:52;4.72;;;3.28;;
60612;SDS011;46443;59.792;17.626;2023-06-22T12:58:18;4.53;;;3.25;;
60612;SDS011;46443;59.792;17.626;2023-06-22T13:00:44;5.72;;;3.40;;
60612;SDS011;46443;59.792;17.626;2023-06-22T13:03:10;4.32;;;3.13;;
60612;SDS011;46443;59.792;17.626;2023-06-22T13:05:36;4.93;;;3.28;;
60612;SDS011;46443;59.792;17.626;2023-06-22T13:08:03;3.63;;;2.80;;
60612;SDS011;46443;59.792;17.626;2023-06-22T13:10:29;4.70;;;3.20;;
60612;SDS011;46443;59.792;17.626;2023-06-22T13:12:55;4.57;;;3.10;;
60612;SDS011;46443;59.792;17.626;2023-06-22T13:15:25;4.78;;;3.30;;
60612;SDS011;46443;59.792;17.626;2023-06-22T13:17:52;4.35;;;3.15;;
60612;SDS011;46443;59.792;17.626;2023-06-22T13:20:18;4.97;;;3.05;;
60612;SDS011;46443;59.792;17.626;2023-06-22T13:22:44;10.10;;;3.20;;
60612;SDS011;46443;59.792;17.626;2023-06-22T13:25:10;4.90;;;3.40;;
60612;SDS011;46443;59.792;17.626;2023-06-22T13:27:40;6.30;;;3.15;;
60612;SDS011;46443;59.792;17.626;2023-06-22T13:32:33;6.60;;;3.25;;
60612;SDS011;46443;59.792;17.626;2023-06-22T13:34:59;6.05;;;3.20;;
60612;SDS011;46443;59.792;17.626;2023-06-22T13:37:25;5.07;;;2.85;;
60612;SDS011;46443;59.792;17.626;2023-06-22T13:39:52;5.72;;;3.08;;
60612;SDS011;46443;59.792;17.626;2023-06-22T13:42:18;4.55;;;3.00;;
60612;SDS011;46443;59.792;17.626;2023-06-22T13:44:44;4.05;;;2.80;;
60612;SDS011;46443;59.792;17.626;2023-06-22T13:47:10;5.05;;;3.10;;
60612;SDS011;46443;59.792;17.626;2023-06-22T13:49:36;5.53;;;3.13;;
60612;SDS011;46443;59.792;17.626;2023-06-22T13:52:02;6.32;;;3.28;;
60612;SDS011;46443;59.792;17.626;2023-06-22T13:54:29;4.47;;;3.08;;
60612;SDS011;46443;59.792;17.626;2023-06-22T13:56:55;5.07;;;3.25;;
60612;SDS011;46443;59.792;17.626;2023-06-22T13:59:21;4.93;;;3.50;;
60612;SDS011;46443;59.792;17.626;2023-06-22T14:01:47;4.40;;;2.78;;
60612;SDS011;46443;59.792;17.626;2023-06-22T14:04:13;4.05;;;2.95;;
60612;SDS011;46443;59.792;17.626;2023-06-22T14:06:39;4.60;;;2.75;;
60612;SDS011;46443;59.792;17.626;2023-06-22T14:09:05;4.13;;;2.95;;
60612;SDS011;46443;59.792;17.626;2023-06-22T14:11:32;4.70;;;3.10;;
60612;SDS011;46443;59.792;17.626;2023-06-22T14:13:58;4.68;;;3.13;;
60612;SDS011;46443;59.792;17.626;2023-06-22T14:16:24;4.53;;;2.80;;
60612;SDS011;46443;59.792;17.626;2023-06-22T14:18:50;4.20;;;3.10;;
60612;SDS011;46443;59.792;17.626;2023-06-22T14:21:16;6.72;;;2.92;;
60612;SDS011;46443;59.792;17.626;2023-06-22T14:23:42;4.88;;;3.40;;
60612;SDS011;46443;59.792;17.626;2023-06-22T14:26:14;8.38;;;3.45;;
60612;SDS011;46443;59.792;17.626;2023-06-22T14:28:42;4.00;;;2.83;;
60612;SDS011;46443;59.792;17.626;2023-06-22T14:31:12;4.70;;;2.90;;
60612;SDS011;46443;59.792;17.626;2023-06-22T14:33:38;5.35;;;2.90;;
60612;SDS011;46443;59.792;17.626;2023-06-22T14:36:04;3.80;;;3.00;;
60612;SDS011;46443;59.792;17.626;2023-06-22T14:38:30;6.45;;;3.20;;
60612;SDS011;46443;59.792;17.626;2023-06-22T14:40:56;5.82;;;3.17;;
60612;SDS011;46443;59.792;17.626;2023-06-22T14:43:22;6.30;;;2.97;;